• Join FlightAware (Why Join?)
  • Login
  • US Flag 
10:30AM EDT


 

Airport Tracker/Info


-or-


 

Live Flight TrackerFlight Track Log ✈ TCF5995 ✈ 17-Aug-2014 ✈ KLGA - KDFW

Flight Track Log - Related Links

Times and Time Zones

All times are in EDT time to prevent confusion due to time zone crossing. See the TCF5995 flight status page for this flight to view local times or setup timezone preferences in your user account.

Time Position Orientation Groundspeed Altitude Reporting Facility
EDT Latitude Longitude Course Direction KTS MPH feet Rate Location/Type
06:26PM 40.8186 -73.8778 270° West 160 184 1,700  Level New York Center
06:27PM 40.8686 -73.8856 353° North 223 257 3,100 1,620 Climbing New York Center
06:28PM 40.6876 -74.2895 254° West  Level Estimated
06:28PM 40.9164 -73.9675 308° West 260 299 5,000  Level New York Center
06:29PM 40.7648 -74.3919 315° West  Level FlightAware Approximate
06:29PM 40.9539 -74.0350 306° West 266 306 7,200  Level New York Center
06:30PM 40.7834 -74.5058 270° West  Level FlightAware Approximate
06:30PM 40.9492 -74.1364 267° West 278 320 10,300  Level New York Center
06:31PM 40.7833 -74.6503 270° West  Level FlightAware Approximate
06:31PM 40.9336 -74.2428 259° West 303 349 12,200  Level New York Center
06:32PM 40.9200 -74.3492 260° West 317 365 15,100 2,280 Climbing New York Center
06:33PM 40.9017 -74.4664 258° West 329 379 16,800 900 Climbing New York Center
06:34PM 40.8853 -74.5861 260° West 335 386 17,000 60 Climbing New York Center
06:35PM 40.8669 -74.7031 258° West 335 386 17,000 780 Level New York Center
06:36PM 40.8503 -74.8256 260° West 335 386 18,600 1,560 Climbing New York Center
06:37PM 40.8319 -74.9369 258° West 340 391 20,200 1,680 Climbing New York Center
06:38PM 40.8147 -75.0647 260° West 350 403 22,000 1,620 Climbing New York Center
06:39PM 40.7933 -75.1978 258° West 361 415 23,500 1,500 Climbing New York Center
06:40PM 40.7586 -75.3433 253° West 368 423 25,000 1,380 Climbing New York Center
06:41PM 40.7206 -75.4586 246° West 374 430 26,300 1,320 Climbing New York Center
06:42PM 40.6714 -75.5922 244° Southwest 392 451 27,700 1,140 Climbing New York Center
06:43PM 40.6242 -75.7283 245° Southwest 397 457 28,700 900 Climbing New York Center
06:44PM 40.5769 -75.8614 245° Southwest 404 465 29,600 960 Climbing New York Center
06:45PM 40.5136 -76.0178 242° Southwest 428 493 30,700 900 Climbing New York Center
06:46PM 40.4658 -76.1589 246° West 428 493 31,500 1,020 Climbing New York Center
06:47PM 40.4156 -76.2967 244° Southwest 428 493 32,800 900 Climbing New York Center
06:48PM 40.3653 -76.4344 244° Southwest 428 493 33,400 600 Climbing New York Center
06:49PM 40.3169 -76.5719 245° Southwest 428 493 34,000 240 Climbing New York Center
06:50PM 40.2789 -76.7103 250° West 423 487 34,000  Level New York Center
06:51PM 40.2406 -76.8486 250° West 418 481 34,000  Level New York Center
06:52PM 40.2019 -76.9864 250° West 413 475 34,000  Level New York Center
06:53PM 40.1636 -77.1217 250° West 408 470 34,000  Level New York Center
06:55PM 40.0811 -77.4283 251° West 407 468 34,000  Level Cleveland Center
06:56PM 40.0417 -77.5683 250° West 407 468 34,000  Level Cleveland Center
06:57PM 40.0022 -77.7072 250° West 408 470 34,000  Level Cleveland Center
06:58PM 39.9558 -77.8747 250° West 408 470 34,000  Level Cleveland Center
06:59PM 39.9158 -78.0119 249° West 408 470 34,000  Level Cleveland Center
07:00PM 39.8764 -78.1508 250° West 408 470 34,000  Level Cleveland Center
07:01PM 39.8367 -78.2883 249° West 408 470 34,000  Level Cleveland Center
07:02PM 39.7953 -78.4278 249° West 410 472 34,000  Level Cleveland Center
07:03PM 39.7472 -78.5925 249° West 410 472 34,000  Level Cleveland Center
07:04PM 39.7067 -78.7306 249° West 410 472 34,000  Level Cleveland Center
07:05PM 39.6658 -78.8678 249° West 410 472 34,000  Level Cleveland Center
07:06PM 39.6289 -78.9931 249° West 410 472 34,000  Level Cleveland Center
07:07PM 39.5797 -79.1572 249° West 410 472 34,000  Level Cleveland Center
07:08PM 39.5394 -79.2933 249° West 407 468 34,000  Level Cleveland Center
07:09PM 39.4972 -79.4306 248° West 408 470 34,000  Level Cleveland Center
07:10PM 39.4564 -79.5672 249° West 408 470 34,000  Level Cleveland Center
07:11PM 39.4144 -79.7036 248° West 408 470 34,000  Level Cleveland Center
07:13PM 39.3731 -79.8400 249° West 408 470 34,000  Level Cleveland Center
07:14PM 39.3217 -80.0036 248° West 408 470 34,000  Level Cleveland Center
07:15PM 39.2797 -80.1403 248° West 408 470 34,000  Level Cleveland Center
07:16PM 39.2375 -80.2742 248° West 408 470 34,000  Level Cleveland Center
07:17PM 39.1956 -80.4106 248° West 407 468 34,000  Level Cleveland Center
07:18PM 39.1528 -80.5444 248° West 406 467 34,000  Level Cleveland Center
07:19PM 39.1117 -80.6786 248° West 405 466 34,000  Level Cleveland Center
07:20PM 39.0619 -80.8361 248° West 400 460 34,000  Level Cleveland Center
07:21PM 39.0189 -80.9658 247° West 398 458 34,000  Level Cleveland Center
07:22PM 38.9797 -81.0917 248° West 398 458 34,000  Level Cleveland Center
07:23PM 38.9367 -81.2225 247° West 398 458 34,000  Level Cleveland Center
07:24PM 38.8867 -81.3781 248° West 397 457 34,000  Level Cleveland Center
07:25PM 38.8450 -81.5097 248° West 397 457 34,000  Level Cleveland Center
07:26PM 38.8008 -81.6411 247° West 398 458 34,000  Level Cleveland Center
07:27PM 38.7569 -81.7742 247° West 404 465 34,000  Level Cleveland Center
07:28PM 38.7136 -81.9081 248° West 405 466 34,000  Level Cleveland Center
07:29PM 38.6681 -82.0431 247° West 409 471 34,000  Level Cleveland Center
07:30PM 38.6100 -82.2206 247° West 407 468 34,000  Level Indianapolis Center
07:31PM 38.5650 -82.3528 247° West 407 468 34,000  Level Indianapolis Center
07:32PM 38.5200 -82.4867 247° West 407 468 34,000  Level Indianapolis Center
07:33PM 38.4725 -82.6236 246° West 407 468 34,000  Level Indianapolis Center
07:34PM 38.4272 -82.7592 247° West 411 473 34,000  Level Indianapolis Center
07:35PM 38.3736 -82.9172 247° West 413 475 34,000  Level Indianapolis Center
07:36PM 38.3283 -83.0519 247° West 414 476 34,000  Level Indianapolis Center
07:38PM 38.2806 -83.1856 246° West 414 476 34,000  Level Indianapolis Center
07:39PM 38.2339 -83.3225 247° West 418 481 34,000  Level Indianapolis Center
07:40PM 38.1867 -83.4583 246° West 418 481 34,000  Level Indianapolis Center
07:41PM 38.1397 -83.5925 246° West 418 481 34,000  Level Indianapolis Center
07:42PM 38.0847 -83.7475 246° West 417 480 34,000  Level Indianapolis Center
07:43PM 38.0381 -83.8817 246° West 417 480 34,000  Level Indianapolis Center
07:44PM 37.9908 -84.0153 246° West 417 480 34,000  Level Indianapolis Center
07:45PM 37.9428 -84.1497 246° West 417 480 34,000  Level Indianapolis Center
07:46PM 37.8953 -84.2831 246° West 417 480 34,000  Level Indianapolis Center
07:47PM 37.8469 -84.4175 246° West 418 481 34,000  Level Indianapolis Center
07:48PM 37.7892 -84.5742 245° Southwest 418 481 34,000  Level Indianapolis Center
07:49PM 37.7406 -84.7086 245° Southwest 418 481 34,000  Level Indianapolis Center
07:50PM 37.6925 -84.8411 245° Southwest 418 481 34,000  Level Indianapolis Center
07:51PM 37.6444 -84.9742 246° West 418 481 34,000  Level Indianapolis Center
07:52PM 37.5972 -85.1056 246° West 418 481 34,000  Level Indianapolis Center
07:53PM 37.5458 -85.2378 244° Southwest 417 480 34,000  Level Indianapolis Center
07:54PM 37.4906 -85.3928 246° West 417 480 34,000  Level Indianapolis Center
07:55PM 37.4386 -85.5317 245° Southwest 423 487 34,000  Level Indianapolis Center
07:56PM 37.3894 -85.6650 245° Southwest 423 487 34,000  Level Indianapolis Center
07:57PM 37.3389 -85.7992 245° Southwest 423 487 34,000  Level Indianapolis Center
07:58PM 37.2697 -85.9303 236° Southwest 426 490 34,000  Level Indianapolis Center
07:59PM 37.2047 -86.0517 236° Southwest 421 484 34,000  Level Indianapolis Center
08:00PM 37.1514 -86.1544 237° Southwest 421 484 34,000  Level Memphis Center
08:01PM 37.0850 -86.2775 236° Southwest 421 484 34,000  Level Memphis Center
08:02PM 37.0203 -86.4003 237° Southwest 421 484 34,000  Level Memphis Center
08:03PM 36.9531 -86.5206 235° Southwest 421 484 34,000  Level Memphis Center
08:04PM 36.8869 -86.6442 236° Southwest 422 486 34,000  Level Memphis Center
08:05PM 36.8597 -86.8106 258° West 431 496 34,000  Level Memphis Center
08:06PM 36.8900 -86.9550 285° West 432 497 34,000  Level Memphis Center
08:07PM 36.9306 -87.0992 289° West 433 498 34,000 360 Level Memphis Center
08:08PM 36.9744 -87.2425 291° West 436 502 34,800 960 Climbing Memphis Center
08:09PM 36.9986 -87.3858 282° West 424 488 36,000 540 Climbing Memphis Center
08:10PM 36.9889 -87.5308 265° West 419 482 36,000  Level Memphis Center
08:11PM 36.9758 -87.6744 264° West 417 480 36,000  Level Memphis Center
08:12PM 36.9669 -87.8150 266° West 410 472 36,000  Level Memphis Center
08:13PM 36.9583 -87.9556 266° West 407 468 36,000  Level Memphis Center
08:14PM 36.9467 -88.1178 265° West 402 463 36,000  Level Memphis Center
08:15PM 36.9394 -88.2375 266° West 401 461 36,000  Level Memphis Center
08:16PM 36.9331 -88.3736 267° West 396 456 36,000  Level Memphis Center
08:17PM 36.9222 -88.5367 265° West 395 455 36,000  Level Memphis Center
08:18PM 36.9108 -88.6717 264° West 395 455 36,000  Level Memphis Center
08:20PM 36.8931 -88.8061 261° West 395 455 36,000  Level Memphis Center
08:21PM 36.8778 -88.9397 262° West 393 452 36,000  Level Memphis Center
08:22PM 36.8456 -89.0711 253° West 395 455 36,000  Level Memphis Center
08:23PM 36.8119 -89.2008 252° West 395 455 36,000  Level Memphis Center
08:24PM 36.7789 -89.3311 252° West 395 455 36,000  Level Memphis Center
08:25PM 36.7394 -89.4858 252° West 395 455 36,000  Level Memphis Center
08:26PM 36.7053 -89.6153 252° West 395 455 36,000  Level Memphis Center
08:27PM 36.6719 -89.7458 252° West 395 455 36,000  Level Memphis Center
08:28PM 36.6375 -89.8761 252° West 396 456 36,000  Level Memphis Center
08:29PM 36.6025 -90.0078 252° West 398 458 36,000  Level Memphis Center
08:30PM 36.5678 -90.1389 252° West 399 459 36,000  Level Memphis Center
08:31PM 36.5328 -90.2708 252° West 400 460 36,000  Level Memphis Center
08:32PM 36.4906 -90.4297 252° West 402 463 36,000  Level Memphis Center
08:33PM 36.4550 -90.5642 252° West 403 464 36,000  Level Memphis Center
08:34PM 36.4181 -90.6986 251° West 410 472 36,000  Level Memphis Center
08:35PM 36.3828 -90.8331 252° West 410 472 36,000  Level Memphis Center
08:36PM 36.3461 -90.9667 251° West 410 472 36,000  Level Memphis Center
08:37PM 36.3094 -91.1011 251° West 410 472 36,000  Level Memphis Center
08:38PM 36.2714 -91.2372 251° West 415 478 36,000  Level Memphis Center
08:39PM 36.2356 -91.3728 252° West 415 478 36,000  Level Memphis Center
08:40PM 36.1969 -91.5061 250° West 415 478 36,000  Level Memphis Center
08:41PM 36.1528 -91.6661 251° West 413 475 36,000  Level Memphis Center
08:42PM 36.1150 -91.8000 251° West 413 475 36,000  Level Memphis Center
08:43PM 36.0772 -91.9319 251° West 412 474 36,000  Level Memphis Center
08:44PM 36.0411 -92.0658 252° West 411 473 36,000  Level Memphis Center
08:45PM 36.0000 -92.2083 250° West 411 473 36,000  Level Memphis Center
08:46PM 35.9614 -92.3414 250° West 411 473 36,000  Level Memphis Center
08:47PM 35.9233 -92.4769 251° West 415 478 36,000  Level Memphis Center
08:48PM 35.8844 -92.6075 250° West 413 475 36,000  Level Memphis Center
08:49PM 35.8467 -92.7367 250° West 408 470 36,000  Level Memphis Center
08:50PM 35.8097 -92.8664 251° West 408 470 36,000  Level Memphis Center
08:51PM 35.7706 -92.9931 249° West 404 465 36,000  Level Memphis Center
08:52PM 35.6864 -93.1203 231° Southwest 407 468 36,000  Level Memphis Center
08:53PM 35.6164 -93.2267 231° Southwest 407 468 36,000  Level Memphis Center
08:54PM 35.5467 -93.3319 231° Southwest 403 464 36,000  Level Memphis Center
08:55PM 35.4783 -93.4356 231° Southwest 402 463 36,000  Level Memphis Center
08:56PM 35.4081 -93.5400 230° Southwest 402 463 36,000  Level Memphis Center
08:57PM 35.3367 -93.6453 230° Southwest 402 463 36,000  Level Memphis Center
08:58PM 35.2525 -93.7722 231° Southwest 402 463 36,000  Level Memphis Center
08:59PM 35.1817 -93.8764 230° Southwest 401 461 36,000  Level Memphis Center
09:00PM 35.1111 -93.9819 231° Southwest 400 460 36,000  Level Memphis Center
09:01PM 35.0358 -94.0931 230° Southwest 410 472 36,000  Level Memphis Center
09:03PM 34.9597 -94.2028 230° Southwest 416 479 36,000  Level Memphis Center
09:04PM 34.8847 -94.3139 231° Southwest 418 481 36,000  Level Memphis Center
09:05PM 34.8100 -94.4236 230° Southwest 420 483 36,000  Level Memphis Center
09:06PM 34.7344 -94.5331 230° Southwest 420 483 36,000  Level Memphis Center
09:07PM 34.6583 -94.6419 230° Southwest 421 484 36,000 -180 Level Memphis Center
09:08PM 34.5669 -94.7728 230° Southwest 423 487 35,700 -840 Descending Memphis Center
09:09PM 34.4531 -94.8050 193° South 430 495 34,300 -1,380 Descending Memphis Center
09:10PM 34.3303 -94.8094 182° South 435 501 32,900 -1,380 Descending Memphis Center
09:11PM 34.2061 -94.8153 182° South 441 507 31,500 -1,320 Descending Memphis Center
09:12PM 34.0608 -94.8847 202° Southwest 416 479 29,700 -1,440 Descending Fort Worth Center
09:13PM 33.9972 -95.0339 243° Southwest 427 491 28,000 -1,560 Descending Fort Worth Center
09:14PM 33.9472 -95.1636 245° Southwest 431 496 26,600 -1,320 Descending Fort Worth Center
09:15PM 33.8989 -95.2900 245° Southwest 419 482 25,400 -1,440 Descending Fort Worth Center
09:16PM 33.8469 -95.4261 245° Southwest 446 513 23,700 -1,680 Descending Fort Worth Center
09:17PM 33.7967 -95.5583 245° Southwest 440 506 22,000 -1,740 Descending Fort Worth Center
09:18PM 33.7450 -95.6997 246° West 431 496 20,200 -1,680 Descending Fort Worth Center
09:19PM 33.6967 -95.8253 245° Southwest 420 483 18,600 -1,560 Descending Fort Worth Center
09:20PM 33.6417 -95.9639 245° Southwest 414 476 17,000 -1,620 Descending Fort Worth Center
09:21PM 33.5953 -96.0839 245° Southwest 401 461 15,400 -1,620 Descending Fort Worth Center
09:22PM 33.5453 -96.2106 245° Southwest 394 453 13,800 -1,500 Descending Fort Worth Center
09:23PM 33.4764 -96.3061 229° Southwest 383 441 12,400 -1,320 Descending Fort Worth Center
09:25PM 33.4092 -96.3861 225° Southwest 343 395 11,100 -1,080 Descending Fort Worth Center
09:26PM 33.3453 -96.4617 225° Southwest 305 351 10,200 -1,080 Descending Fort Worth Center
09:27PM 33.2869 -96.5319 225° Southwest 300 345 9,000 -1,380 Descending Fort Worth Center
09:28PM 33.2564 -96.6225 248° West 276 318 7,400 -1,320 Descending Fort Worth Center
09:29PM 33.2328 -96.7086 252° West 276 318 6,300 -1,080 Descending Fort Worth Center
09:30PM 33.2103 -96.7925 252° West 270 311 5,200 -660 Descending Fort Worth Center
09:31PM 33.1717 -96.8739 240° Southwest 270 311 5,000 -780 Descending Fort Worth Center
09:32PM 33.1194 -96.9347 224° Southwest 265 305 3,700 -1,020 Descending Fort Worth Center
09:33PM 33.0744 -96.9858 224° Southwest 223 257 3,000 -660 Descending Fort Worth Center
09:34PM 33.0217 -97.0219 210° Southwest 207 238 2,400 -660 Descending Fort Worth Center
09:35PM 32.9753 -97.0261 184° South 165 190 1,700 -720 Descending Fort Worth Center
09:36PM 32.9375 -97.0269 181° South 134 154 1,000 -540 Descending Fort Worth Center
09:37PM 32.8994 -97.0272 180° South 129 148 600 -420 Descending Fort Worth Center